createdAt,value
2023-05-07T00:00:21.981Z,84
2023-05-07T00:00:53.401Z,84
2023-05-07T00:01:24.464Z,84
2023-05-07T00:01:57.353Z,84
2023-05-07T00:02:28.383Z,84
2023-05-07T00:03:01.526Z,84
2023-05-07T00:03:32.569Z,84
2023-05-07T00:04:05.907Z,84
2023-05-07T00:04:36.228Z,84
2023-05-07T00:05:09.856Z,84
2023-05-07T00:05:40.602Z,84
2023-05-07T00:06:13.380Z,84
2023-05-07T00:06:44.176Z,84
2023-05-07T00:07:17.147Z,84
2023-05-07T00:07:48.413Z,84
2023-05-07T00:08:21.266Z,84
2023-05-07T00:08:52.015Z,85
2023-05-07T00:09:25.064Z,85
2023-05-07T00:09:56.187Z,85
2023-05-07T00:10:29.180Z,85
2023-05-07T00:10:59.973Z,84
2023-05-07T00:11:33.811Z,85
2023-05-07T00:12:04.122Z,84
2023-05-07T00:12:37.169Z,85
2023-05-07T00:13:08.222Z,85
2023-05-07T00:13:41.417Z,84
2023-05-07T00:14:11.913Z,85
2023-05-07T00:14:44.869Z,85
2023-05-07T00:15:15.866Z,85
2023-05-07T00:15:49.203Z,85
2023-05-07T00:16:19.885Z,85
2023-05-07T00:16:52.973Z,85
2023-05-07T00:17:23.755Z,85
2023-05-07T00:17:56.879Z,85
2023-05-07T00:18:28.091Z,85
2023-05-07T00:19:01.032Z,85
2023-05-07T00:19:31.748Z,85
2023-05-07T00:20:04.693Z,85
2023-05-07T00:20:36.464Z,85
2023-05-07T00:21:08.582Z,85
2023-05-07T00:21:39.609Z,85
2023-05-07T00:22:12.536Z,85
2023-05-07T00:22:43.557Z,85
2023-05-07T00:23:16.905Z,85
2023-05-07T00:23:47.509Z,85
2023-05-07T00:24:20.402Z,85
2023-05-07T00:24:51.417Z,85
2023-05-07T00:25:24.380Z,85
2023-05-07T00:25:55.491Z,85
2023-05-07T00:26:28.512Z,85
2023-05-07T00:26:59.421Z,85
2023-05-07T00:27:32.374Z,85
2023-05-07T00:28:03.259Z,85
2023-05-07T00:28:37.381Z,85
2023-05-07T00:29:07.337Z,85
2023-05-07T00:29:40.149Z,85
2023-05-07T00:30:11.588Z,86
2023-05-07T00:30:44.264Z,85
2023-05-07T00:31:15.345Z,85
2023-05-07T00:31:48.041Z,86
2023-05-07T00:32:19.088Z,85
2023-05-07T00:32:52.256Z,85
2023-05-07T00:33:23.155Z,85
2023-05-07T00:33:56.164Z,85
2023-05-07T00:34:27.165Z,85
2023-05-07T00:34:59.957Z,85
2023-05-07T00:35:31.209Z,85
2023-05-07T00:36:04.308Z,85
2023-05-07T00:36:35.007Z,86
2023-05-07T00:37:07.945Z,86
2023-05-07T00:37:38.996Z,86
2023-05-07T00:38:11.989Z,85
2023-05-07T00:38:42.918Z,85
2023-05-07T00:39:15.795Z,86
2023-05-07T00:39:46.877Z,86
2023-05-07T00:40:19.949Z,86
2023-05-07T00:40:50.897Z,86
2023-05-07T00:41:23.901Z,86
2023-05-07T00:41:54.810Z,86
2023-05-07T00:42:27.573Z,86
2023-05-07T00:42:58.572Z,86
2023-05-07T00:43:31.918Z,86
2023-05-07T00:44:02.927Z,86
2023-05-07T00:44:36.774Z,86
2023-05-07T00:45:06.761Z,86
2023-05-07T00:45:39.326Z,86
2023-05-07T00:46:10.882Z,85
2023-05-07T00:46:43.464Z,86
2023-05-07T00:47:14.497Z,86
2023-05-07T00:47:47.562Z,86
2023-05-07T00:48:18.703Z,85
2023-05-07T00:48:51.505Z,85
2023-05-07T00:49:22.419Z,85
2023-05-07T00:49:55.467Z,85
2023-05-07T00:50:26.588Z,85
2023-05-07T00:50:59.430Z,85
2023-05-07T00:51:30.464Z,85
2023-05-07T00:52:03.418Z,86
2023-05-07T00:52:34.420Z,86
2023-05-07T00:53:07.278Z,85
2023-05-07T00:53:38.491Z,85
2023-05-07T00:54:11.306Z,85
2023-05-07T00:54:42.068Z,85
2023-05-07T00:55:15.271Z,85
2023-05-07T00:55:46.122Z,85
2023-05-07T00:56:19.090Z,85
2023-05-07T00:56:49.994Z,85
2023-05-07T00:57:23.057Z,86
2023-05-07T00:57:54.044Z,86
2023-05-07T00:58:27.199Z,86
2023-05-07T00:58:58.308Z,86
2023-05-07T00:59:30.945Z,86
2023-05-07T01:00:02.192Z,85
2023-05-07T01:00:35.248Z,86
2023-05-07T01:01:05.976Z,85
2023-05-07T01:01:39.020Z,85
2023-05-07T01:02:10.081Z,85
2023-05-07T01:02:43.087Z,86
2023-05-07T01:03:13.742Z,86
2023-05-07T01:03:46.772Z,85
2023-05-07T01:04:17.923Z,85
2023-05-07T01:04:50.820Z,85
2023-05-07T01:05:21.900Z,85
2023-05-07T01:05:54.698Z,85
2023-05-07T01:06:25.645Z,85
2023-05-07T01:06:58.961Z,85
2023-05-07T01:07:29.552Z,85
2023-05-07T01:08:02.991Z,86
2023-05-07T01:08:33.793Z,85
2023-05-07T01:09:06.683Z,86
2023-05-07T01:09:37.522Z,86
2023-05-07T01:10:10.707Z,85
2023-05-07T01:10:41.544Z,86
2023-05-07T01:11:14.584Z,86
2023-05-07T01:11:45.305Z,86
2023-05-07T01:12:18.348Z,86
2023-05-07T01:12:49.480Z,86
2023-05-07T01:13:22.870Z,86
2023-05-07T01:13:53.419Z,86
2023-05-07T01:14:26.412Z,86
2023-05-07T01:14:57.507Z,86
2023-05-07T01:15:30.500Z,86
2023-05-07T01:16:01.312Z,86
2023-05-07T01:16:34.373Z,86
2023-05-07T01:17:05.389Z,86
2023-05-07T01:17:38.262Z,86
2023-05-07T01:18:09.259Z,86
2023-05-07T01:18:42.310Z,86
2023-05-07T01:19:13.300Z,85
2023-05-07T01:19:46.061Z,86
2023-05-07T01:20:17.071Z,86
2023-05-07T01:20:50.201Z,86
2023-05-07T01:21:21.418Z,86
2023-05-07T01:21:53.937Z,86
2023-05-07T01:22:25.102Z,86
2023-05-07T01:22:57.937Z,86
2023-05-07T01:23:29.089Z,86
2023-05-07T01:24:01.780Z,86
2023-05-07T01:24:32.983Z,86
2023-05-07T01:25:05.884Z,86
2023-05-07T01:25:36.933Z,86
2023-05-07T01:26:10.438Z,86
2023-05-07T01:26:41.172Z,86
2023-05-07T01:27:13.756Z,86
2023-05-07T01:27:44.744Z,86
2023-05-07T01:28:17.708Z,86
2023-05-07T01:28:48.735Z,86
2023-05-07T01:29:21.746Z,86
2023-05-07T01:29:52.747Z,86
2023-05-07T01:30:25.662Z,86
2023-05-07T01:30:56.705Z,86
2023-05-07T01:31:29.656Z,86
2023-05-07T01:32:01.011Z,86
2023-05-07T01:32:33.635Z,86
2023-05-07T01:33:04.603Z,86
2023-05-07T01:33:37.803Z,86
2023-05-07T01:34:08.714Z,86
2023-05-07T01:34:42.440Z,86
2023-05-07T01:35:12.477Z,86
2023-05-07T01:35:45.289Z,86
2023-05-07T01:36:16.637Z,86
2023-05-07T01:36:49.315Z,86
2023-05-07T01:37:20.420Z,86
2023-05-07T01:37:53.301Z,86
2023-05-07T01:38:24.448Z,86
2023-05-07T01:38:57.300Z,86
2023-05-07T01:39:28.401Z,86
2023-05-07T01:40:01.527Z,86
2023-05-07T01:40:32.221Z,86
2023-05-07T01:41:05.264Z,86
2023-05-07T01:41:36.313Z,86
2023-05-07T01:42:09.238Z,86
2023-05-07T01:42:40.336Z,86
2023-05-07T01:43:13.180Z,86
2023-05-07T01:43:44.112Z,86
2023-05-07T01:44:17.195Z,86
2023-05-07T01:44:48.296Z,86
2023-05-07T01:45:21.255Z,86
2023-05-07T01:45:52.077Z,86
2023-05-07T01:46:25.227Z,86
2023-05-07T01:46:56.131Z,86
2023-05-07T01:47:29.055Z,86
2023-05-07T01:48:00.005Z,86
2023-05-07T01:48:33.109Z,86
2023-05-07T01:49:04.033Z,86
2023-05-07T01:49:36.867Z,86
2023-05-07T01:50:08.207Z,86
2023-05-07T01:50:41.069Z,86
2023-05-07T01:51:11.810Z,86
2023-05-07T01:51:44.901Z,86
2023-05-07T01:52:15.954Z,86
2023-05-07T01:52:48.821Z,86
2023-05-07T01:53:19.568Z,86
2023-05-07T01:53:52.725Z,86
2023-05-07T01:54:23.932Z,86
2023-05-07T01:54:56.815Z,86
2023-05-07T01:55:27.581Z,86
2023-05-07T01:56:00.717Z,86
2023-05-07T01:56:31.641Z,86
2023-05-07T01:57:05.093Z,86
2023-05-07T01:57:35.815Z,86
2023-05-07T01:58:08.504Z,86
2023-05-07T01:58:39.612Z,86
2023-05-07T01:59:12.593Z,86
2023-05-07T01:59:43.574Z,86
2023-05-07T02:00:16.752Z,86
2023-05-07T02:00:47.460Z,86
2023-05-07T02:01:21.284Z,86
2023-05-07T02:01:51.375Z,86
2023-05-07T02:02:24.480Z,86
2023-05-07T02:02:55.814Z,86
2023-05-07T02:03:28.542Z,86
2023-05-07T02:03:59.347Z,86
2023-05-07T02:04:32.275Z,86
2023-05-07T02:05:03.593Z,86
2023-05-07T02:05:36.161Z,86
2023-05-07T02:06:07.429Z,86
2023-05-07T02:06:40.164Z,86
2023-05-07T02:07:11.534Z,86
2023-05-07T02:07:44.395Z,86
2023-05-07T02:08:15.398Z,86
2023-05-07T02:08:48.260Z,86
2023-05-07T02:09:19.203Z,86
2023-05-07T02:09:51.938Z,86
2023-05-07T02:10:23.041Z,86
2023-05-07T02:10:56.121Z,86
2023-05-07T02:11:27.111Z,86
2023-05-07T02:11:59.970Z,86
2023-05-07T02:12:31.078Z,86
2023-05-07T02:13:03.911Z,86
2023-05-07T02:13:34.957Z,86
2023-05-07T02:14:07.860Z,86
2023-05-07T02:14:38.797Z,86
2023-05-07T02:15:12.195Z,86
2023-05-07T02:15:42.905Z,86
2023-05-07T02:16:15.900Z,86
2023-05-07T02:16:46.795Z,86
2023-05-07T02:17:19.804Z,86
2023-05-07T02:17:51.007Z,86
2023-05-07T02:18:23.715Z,86
2023-05-07T02:18:54.666Z,86
2023-05-07T02:19:27.802Z,86
2023-05-07T02:19:58.803Z,85
2023-05-07T02:20:31.634Z,86
2023-05-07T02:21:02.444Z,86
2023-05-07T02:21:35.489Z,86
2023-05-07T02:22:06.635Z,86
2023-05-07T02:22:40.018Z,86
2023-05-07T02:23:10.776Z,86
2023-05-07T02:23:43.480Z,86
2023-05-07T02:24:14.324Z,86
2023-05-07T02:24:47.359Z,86
2023-05-07T02:25:18.397Z,86
2023-05-07T02:25:51.573Z,86
2023-05-07T02:26:22.780Z,86
2023-05-07T02:26:55.328Z,86
2023-05-07T02:27:26.302Z,86
2023-05-07T02:27:59.134Z,86
2023-05-07T02:28:30.403Z,86
2023-05-07T02:29:03.378Z,86
2023-05-07T02:29:34.205Z,85
2023-05-07T02:30:07.534Z,85
2023-05-07T02:30:38.227Z,85
2023-05-07T02:31:11.070Z,85
2023-05-07T02:31:42.190Z,85
2023-05-07T02:32:15.291Z,85
2023-05-07T02:32:46.252Z,85
2023-05-07T02:33:19.120Z,86
2023-05-07T02:33:50.147Z,85
2023-05-07T02:34:23.134Z,86
2023-05-07T02:34:53.922Z,86
2023-05-07T02:35:26.981Z,86
2023-05-07T02:35:58.065Z,86
2023-05-07T02:36:31.553Z,86
2023-05-07T02:37:01.882Z,86
2023-05-07T02:37:35.540Z,86
2023-05-07T02:38:06.059Z,86
2023-05-07T02:38:38.999Z,86
2023-05-07T02:39:09.737Z,86
2023-05-07T02:39:42.642Z,86
2023-05-07T02:40:13.967Z,86
2023-05-07T02:40:46.918Z,86
2023-05-07T02:41:17.627Z,86
2023-05-07T02:41:50.816Z,86
2023-05-07T02:42:21.739Z,86
2023-05-07T02:42:54.676Z,86
2023-05-07T02:43:25.574Z,86
2023-05-07T02:43:58.524Z,86
2023-05-07T02:44:29.600Z,86
2023-05-07T02:45:02.817Z,86
2023-05-07T02:45:34.016Z,86
2023-05-07T02:46:06.628Z,86
2023-05-07T02:46:37.519Z,86
2023-05-07T02:47:10.656Z,86
2023-05-07T02:47:41.636Z,86
2023-05-07T02:48:14.601Z,86
2023-05-07T02:48:45.448Z,86
2023-05-07T02:49:18.271Z,86
2023-05-07T02:49:49.380Z,86
2023-05-07T02:50:22.510Z,86
2023-05-07T02:50:53.402Z,86
2023-05-07T02:51:26.416Z,86
2023-05-07T02:51:57.250Z,86
2023-05-07T02:52:30.332Z,86
2023-05-07T02:53:01.356Z,86
2023-05-07T02:53:34.694Z,85
2023-05-07T02:54:05.297Z,86
2023-05-07T02:54:38.187Z,85
2023-05-07T02:55:09.267Z,86
2023-05-07T02:55:41.954Z,86
2023-05-07T02:56:12.986Z,86
2023-05-07T02:56:46.751Z,86
2023-05-07T02:57:17.144Z,86
2023-05-07T02:57:49.844Z,86
2023-05-07T02:58:21.274Z,86
2023-05-07T02:58:54.292Z,86
2023-05-07T02:59:25.078Z,86
2023-05-07T02:59:57.906Z,86
2023-05-07T03:00:29.000Z,86
2023-05-07T03:01:01.839Z,86
2023-05-07T03:01:33.412Z,86
2023-05-07T03:02:05.839Z,86
2023-05-07T03:02:36.822Z,86
2023-05-07T03:03:10.168Z,86
2023-05-07T03:03:41.118Z,86
2023-05-07T03:04:13.764Z,86
2023-05-07T03:04:45.263Z,86
2023-05-07T03:05:18.075Z,86
2023-05-07T03:05:48.714Z,86
2023-05-07T03:06:21.747Z,86
2023-05-07T03:06:52.684Z,86
2023-05-07T03:07:25.672Z,86
2023-05-07T03:07:56.625Z,86
2023-05-07T03:08:29.514Z,86
2023-05-07T03:09:00.918Z,86
2023-05-07T03:09:33.757Z,86
2023-05-07T03:10:04.410Z,86
2023-05-07T03:10:38.748Z,86
2023-05-07T03:11:09.165Z,86
2023-05-07T03:11:41.793Z,86
2023-05-07T03:12:12.412Z,86
2023-05-07T03:12:45.571Z,86
2023-05-07T03:13:16.444Z,86
2023-05-07T03:13:49.416Z,86
2023-05-07T03:14:20.500Z,86
2023-05-07T03:14:53.397Z,86
2023-05-07T03:15:24.510Z,86
2023-05-07T03:15:57.562Z,86
2023-05-07T03:16:28.243Z,86
2023-05-07T03:17:01.495Z,86
2023-05-07T03:17:32.711Z,86
2023-05-07T03:18:05.463Z,86
2023-05-07T03:18:36.282Z,86
2023-05-07T03:19:09.276Z,86
2023-05-07T03:19:40.282Z,86
2023-05-07T03:20:13.510Z,86
2023-05-07T03:20:44.120Z,86
2023-05-07T03:21:17.111Z,86
2023-05-07T03:21:48.304Z,86
2023-05-07T03:22:21.336Z,86
2023-05-07T03:22:52.047Z,86
2023-05-07T03:23:25.757Z,86
2023-05-07T03:23:55.986Z,86
2023-05-07T03:24:29.167Z,86
2023-05-07T03:24:59.826Z,86
2023-05-07T03:25:32.804Z,86
2023-05-07T03:26:03.879Z,86
2023-05-07T03:26:37.002Z,87
2023-05-07T03:27:07.638Z,86
2023-05-07T03:27:40.948Z,86
2023-05-07T03:28:12.604Z,87
2023-05-07T03:28:44.817Z,86
2023-05-07T03:29:15.748Z,87
2023-05-07T03:29:48.459Z,87
2023-05-07T03:30:20.062Z,86
2023-05-07T03:30:52.651Z,87
2023-05-07T03:31:23.575Z,87
2023-05-07T03:31:56.640Z,87
2023-05-07T03:32:27.640Z,87
2023-05-07T03:33:00.456Z,87
2023-05-07T03:33:31.518Z,87
2023-05-07T03:34:04.595Z,87
2023-05-07T03:34:35.612Z,87
2023-05-07T03:35:08.383Z,87
2023-05-07T03:35:39.376Z,87
2023-05-07T03:36:12.542Z,87
2023-05-07T03:36:43.564Z,87
2023-05-07T03:37:16.159Z,87
2023-05-07T03:37:47.303Z,87
2023-05-07T03:38:20.517Z,87
2023-05-07T03:38:51.433Z,87
2023-05-07T03:39:24.207Z,87
2023-05-07T03:39:55.357Z,87
2023-05-07T03:40:28.333Z,87
2023-05-07T03:40:59.201Z,87
2023-05-07T03:41:32.020Z,87
2023-05-07T03:42:03.239Z,87
2023-05-07T03:42:36.190Z,87
2023-05-07T03:43:07.185Z,87
2023-05-07T03:43:40.138Z,87
2023-05-07T03:44:11.197Z,87
2023-05-07T03:44:44.034Z,87
2023-05-07T03:45:15.148Z,87
2023-05-07T03:45:48.261Z,87
2023-05-07T03:46:19.150Z,87
2023-05-07T03:46:51.993Z,88
2023-05-07T03:47:22.897Z,88
2023-05-07T03:47:56.122Z,88
2023-05-07T03:48:26.929Z,88
2023-05-07T03:49:00.856Z,88
2023-05-07T03:49:30.924Z,88
2023-05-07T03:50:03.803Z,88
2023-05-07T03:50:34.903Z,88
2023-05-07T03:51:07.923Z,88
2023-05-07T03:51:38.712Z,88
2023-05-07T03:52:11.738Z,88
2023-05-07T03:52:42.779Z,88
2023-05-07T03:53:16.099Z,88
2023-05-07T03:53:46.659Z,88
2023-05-07T03:54:19.642Z,88
2023-05-07T03:54:51.059Z,88
2023-05-07T03:55:23.551Z,88
2023-05-07T03:55:54.571Z,88
2023-05-07T03:56:27.891Z,88
2023-05-07T03:56:58.853Z,88
2023-05-07T03:57:31.428Z,88
2023-05-07T03:58:02.395Z,88
2023-05-07T03:58:35.661Z,88
2023-05-07T03:59:06.792Z,88
2023-05-07T03:59:40.444Z,88
2023-05-07T04:00:11.549Z,89
2023-05-07T04:00:43.343Z,88
2023-05-07T04:01:14.468Z,89
2023-05-07T04:01:47.487Z,89
2023-05-07T04:02:18.362Z,89
2023-05-07T04:02:51.574Z,89
2023-05-07T04:03:22.448Z,89
2023-05-07T04:03:55.534Z,89
2023-05-07T04:04:26.517Z,88
2023-05-07T04:04:59.176Z,88
2023-05-07T04:05:30.364Z,89
2023-05-07T04:06:03.073Z,88
2023-05-07T04:06:34.323Z,88
2023-05-07T04:07:07.320Z,88
2023-05-07T04:07:38.308Z,88
2023-05-07T04:08:11.094Z,88
2023-05-07T04:08:42.093Z,88
2023-05-07T04:09:14.989Z,88
2023-05-07T04:09:46.054Z,88
2023-05-07T04:10:19.076Z,88
2023-05-07T04:10:50.107Z,89
2023-05-07T04:11:22.984Z,89
2023-05-07T04:11:53.926Z,89
2023-05-07T04:12:26.877Z,89
2023-05-07T04:12:57.934Z,89
2023-05-07T04:13:31.235Z,90
2023-05-07T04:14:01.976Z,90
2023-05-07T04:14:38.980Z,89
2023-05-07T04:15:06.140Z,89
2023-05-07T04:15:37.775Z,89
2023-05-07T04:16:09.744Z,89
2023-05-07T04:16:41.787Z,89
2023-05-07T04:17:13.807Z,89
2023-05-07T04:17:45.939Z,89
2023-05-07T04:18:17.616Z,89
2023-05-07T04:18:49.656Z,89
2023-05-07T04:19:21.741Z,89
2023-05-07T04:19:53.760Z,89
2023-05-07T04:20:25.424Z,89
2023-05-07T04:20:57.519Z,89
2023-05-07T04:21:29.576Z,89
2023-05-07T04:22:01.690Z,90
2023-05-07T04:22:33.856Z,90
2023-05-07T04:23:05.578Z,90
2023-05-07T04:23:37.543Z,90
2023-05-07T04:24:09.623Z,90
2023-05-07T04:24:41.512Z,90
2023-05-07T04:25:13.500Z,90
2023-05-07T04:25:45.507Z,90
2023-05-07T04:26:17.453Z,90
2023-05-07T04:26:49.552Z,90
2023-05-07T04:27:21.442Z,89
2023-05-07T04:27:54.195Z,89
2023-05-07T04:28:25.221Z,90
2023-05-07T04:28:57.178Z,90
2023-05-07T04:29:29.102Z,90
2023-05-07T04:30:01.463Z,90
2023-05-07T04:30:33.340Z,90
2023-05-07T04:31:05.118Z,90
2023-05-07T04:31:37.258Z,90
2023-05-07T04:32:09.247Z,90
2023-05-07T04:32:41.216Z,90
2023-05-07T04:33:13.120Z,90
2023-05-07T04:33:45.596Z,90
2023-05-07T04:34:17.085Z,90
2023-05-07T04:34:49.008Z,90
2023-05-07T04:35:21.374Z,90
2023-05-07T04:35:52.941Z,90
2023-05-07T04:36:24.960Z,90
2023-05-07T04:36:56.896Z,90
2023-05-07T04:37:28.929Z,90
2023-05-07T04:38:00.983Z,90
2023-05-07T04:38:33.485Z,90
2023-05-07T04:39:04.708Z,90
2023-05-07T04:39:36.982Z,90
2023-05-07T04:40:08.990Z,90
2023-05-07T04:40:41.074Z,90
2023-05-07T04:41:12.604Z,90
2023-05-07T04:41:44.745Z,90
2023-05-07T04:42:16.911Z,90
2023-05-07T04:42:48.760Z,90
2023-05-07T04:43:20.595Z,89
2023-05-07T04:43:52.596Z,89
2023-05-07T04:44:24.628Z,89
2023-05-07T04:44:56.767Z,90
2023-05-07T04:45:28.703Z,90
2023-05-07T04:46:00.599Z,90
2023-05-07T04:46:32.615Z,90
2023-05-07T04:47:04.896Z,90
2023-05-07T04:47:36.501Z,90
2023-05-07T04:48:08.443Z,89
2023-05-07T04:48:40.468Z,89
2023-05-07T04:49:12.453Z,89
2023-05-07T04:49:44.431Z,89
2023-05-07T04:50:16.360Z,89
2023-05-07T04:50:48.474Z,89
2023-05-07T04:51:20.392Z,89
2023-05-07T04:51:52.202Z,89
2023-05-07T04:52:27.161Z,89
2023-05-07T04:52:56.263Z,89
2023-05-07T04:53:28.542Z,89
2023-05-07T04:54:00.106Z,89
2023-05-07T04:54:32.238Z,89
2023-05-07T04:55:04.338Z,89
2023-05-07T04:55:36.205Z,89
2023-05-07T04:56:08.042Z,89
2023-05-07T04:56:40.052Z,89
2023-05-07T04:57:12.160Z,89
2023-05-07T04:57:44.087Z,89
2023-05-07T04:58:16.045Z,89
2023-05-07T04:58:48.064Z,89
2023-05-07T04:59:19.910Z,89
2023-05-07T04:59:52.004Z,89
2023-05-07T05:00:24.048Z,89
2023-05-07T05:00:55.848Z,89
2023-05-07T05:01:27.938Z,89
2023-05-07T05:01:59.989Z,89
2023-05-07T05:02:31.770Z,89
2023-05-07T05:03:03.895Z,89
2023-05-07T05:03:36.023Z,89
2023-05-07T05:04:07.836Z,89
2023-05-07T05:04:39.870Z,89
2023-05-07T05:05:11.791Z,89
2023-05-07T05:05:43.717Z,89
2023-05-07T05:06:15.601Z,89
2023-05-07T05:06:47.750Z,89
2023-05-07T05:07:19.794Z,89
2023-05-07T05:07:51.617Z,89
2023-05-07T05:08:23.341Z,89
2023-05-07T05:08:55.408Z,89
2023-05-07T05:09:27.623Z,89
2023-05-07T05:09:59.640Z,89
2023-05-07T05:10:31.541Z,89
2023-05-07T05:11:03.523Z,89
2023-05-07T05:11:35.682Z,89
2023-05-07T05:12:07.459Z,89
2023-05-07T05:12:39.549Z,89
2023-05-07T05:13:11.387Z,89
2023-05-07T05:13:43.352Z,89
2023-05-07T05:14:15.417Z,90
2023-05-07T05:14:47.339Z,90
2023-05-07T05:15:19.527Z,89
2023-05-07T05:15:51.456Z,90
2023-05-07T05:16:23.315Z,90
2023-05-07T05:16:55.135Z,90
2023-05-07T05:17:27.242Z,90
2023-05-07T05:17:59.252Z,90
2023-05-07T05:18:31.409Z,90
2023-05-07T05:19:03.135Z,90
2023-05-07T05:19:35.082Z,90
2023-05-07T05:20:07.198Z,90
2023-05-07T05:20:39.124Z,90
2023-05-07T05:21:11.149Z,90
2023-05-07T05:21:43.174Z,90
2023-05-07T05:22:15.066Z,91
2023-05-07T05:22:47.106Z,91
2023-05-07T05:23:18.882Z,90
2023-05-07T05:23:50.919Z,90
2023-05-07T05:24:22.948Z,91
2023-05-07T05:24:54.965Z,91
2023-05-07T05:25:26.811Z,91
2023-05-07T05:25:58.858Z,91
2023-05-07T05:26:31.202Z,91
2023-05-07T05:27:03.182Z,91
2023-05-07T05:27:34.895Z,91
2023-05-07T05:28:06.748Z,91
2023-05-07T05:28:38.874Z,91
2023-05-07T05:29:11.002Z,91
2023-05-07T05:29:42.746Z,91
2023-05-07T05:30:14.701Z,91
2023-05-07T05:30:46.914Z,91
2023-05-07T05:31:18.717Z,90
2023-05-07T05:31:50.642Z,90
2023-05-07T05:32:22.640Z,90
2023-05-07T05:32:54.627Z,90
2023-05-07T05:33:26.618Z,90
2023-05-07T05:33:58.435Z,90
2023-05-07T05:34:30.458Z,90
2023-05-07T05:35:02.604Z,90
2023-05-07T05:35:34.335Z,90
2023-05-07T05:36:06.379Z,91
2023-05-07T05:36:38.569Z,91
2023-05-07T05:37:10.880Z,91
2023-05-07T05:37:42.342Z,91
2023-05-07T05:38:14.545Z,91
2023-05-07T05:38:46.355Z,90
2023-05-07T05:39:18.403Z,90
2023-05-07T05:39:50.348Z,90
2023-05-07T05:40:22.322Z,90
2023-05-07T05:40:56.476Z,89
2023-05-07T05:41:26.282Z,89
2023-05-07T05:41:58.059Z,89
2023-05-07T05:42:30.234Z,89
2023-05-07T05:43:02.148Z,89
2023-05-07T05:43:34.071Z,90
2023-05-07T05:44:06.025Z,90
2023-05-07T05:44:38.044Z,90
2023-05-07T05:45:10.309Z,90
2023-05-07T05:45:42.083Z,90
2023-05-07T05:46:14.049Z,90
2023-05-07T05:46:46.100Z,90
2023-05-07T05:47:18.053Z,90
2023-05-07T05:47:50.017Z,89
2023-05-07T05:48:21.682Z,90
2023-05-07T05:48:53.932Z,90
2023-05-07T05:49:25.929Z,90
2023-05-07T05:49:58.052Z,89
2023-05-07T05:50:29.853Z,89
2023-05-07T05:51:01.765Z,89
2023-05-07T05:51:33.767Z,89
2023-05-07T05:52:05.867Z,90
2023-05-07T05:52:37.739Z,90
2023-05-07T05:53:09.672Z,89
2023-05-07T05:53:41.670Z,89
2023-05-07T05:54:13.761Z,89
2023-05-07T05:54:45.494Z,89
2023-05-07T05:55:17.687Z,88
2023-05-07T05:55:49.615Z,89
2023-05-07T05:56:21.658Z,89
2023-05-07T05:56:53.476Z,89
2023-05-07T05:57:26.706Z,88
2023-05-07T05:57:57.616Z,88
2023-05-07T05:58:29.518Z,88
2023-05-07T05:59:01.442Z,88
2023-05-07T05:59:33.520Z,88
2023-05-07T06:00:05.883Z,88
2023-05-07T06:00:37.491Z,88
2023-05-07T06:01:09.403Z,88
2023-05-07T06:01:41.567Z,89
2023-05-07T06:02:13.420Z,89
2023-05-07T06:02:45.505Z,89
2023-05-07T06:03:17.285Z,89
2023-05-07T06:03:49.257Z,89
2023-05-07T06:04:21.442Z,89
2023-05-07T06:04:53.176Z,89
2023-05-07T06:05:25.534Z,88
2023-05-07T06:05:57.259Z,88
2023-05-07T06:06:29.271Z,88
2023-05-07T06:07:01.237Z,88
2023-05-07T06:07:33.143Z,89
2023-05-07T06:08:05.186Z,89
2023-05-07T06:08:37.098Z,88
2023-05-07T06:09:08.973Z,88
2023-05-07T06:09:41.154Z,88
2023-05-07T06:10:13.460Z,88
2023-05-07T06:10:45.073Z,88
2023-05-07T06:11:16.849Z,88
2023-05-07T06:11:48.914Z,88
2023-05-07T06:12:21.201Z,88
2023-05-07T06:12:53.067Z,88
2023-05-07T06:13:26.666Z,88
2023-05-07T06:13:56.781Z,88
2023-05-07T06:14:28.833Z,88
2023-05-07T06:15:01.215Z,88
2023-05-07T06:15:32.787Z,87
2023-05-07T06:16:04.812Z,88
2023-05-07T06:16:36.663Z,88
2023-05-07T06:17:08.776Z,88
2023-05-07T06:17:40.887Z,88
2023-05-07T06:18:12.766Z,87
2023-05-07T06:18:44.814Z,87
2023-05-07T06:19:16.703Z,88
2023-05-07T06:19:48.616Z,88
2023-05-07T06:20:21.290Z,88
2023-05-07T06:20:52.641Z,88
2023-05-07T06:21:24.387Z,88
2023-05-07T06:21:56.450Z,88
2023-05-07T06:22:28.477Z,88
2023-05-07T06:23:00.857Z,88
2023-05-07T06:23:32.503Z,88
2023-05-07T06:24:04.346Z,88
2023-05-07T06:24:36.484Z,88
2023-05-07T06:25:08.399Z,88
2023-05-07T06:25:40.446Z,88
2023-05-07T06:26:12.374Z,88
2023-05-07T06:26:44.402Z,88
2023-05-07T06:27:16.303Z,88
2023-05-07T06:27:48.327Z,88
2023-05-07T06:28:20.272Z,88
2023-05-07T06:28:52.190Z,88
2023-05-07T06:29:24.217Z,88
2023-05-07T06:29:56.064Z,88
2023-05-07T06:30:28.340Z,88
2023-05-07T06:31:00.244Z,88
2023-05-07T06:31:32.221Z,88
2023-05-07T06:32:04.121Z,88
2023-05-07T06:32:36.053Z,87
2023-05-07T06:33:08.210Z,87
2023-05-07T06:33:40.036Z,88
2023-05-07T06:34:12.048Z,87
2023-05-07T06:34:43.944Z,87
2023-05-07T06:35:16.035Z,88
2023-05-07T06:35:48.213Z,88
2023-05-07T06:36:19.773Z,88
2023-05-07T06:36:51.812Z,88
2023-05-07T06:37:23.761Z,88
2023-05-07T06:37:55.977Z,88
2023-05-07T06:38:27.701Z,88
2023-05-07T06:38:59.790Z,88
2023-05-07T06:39:31.773Z,88
2023-05-07T06:40:03.863Z,88
2023-05-07T06:40:35.726Z,88
2023-05-07T06:41:07.712Z,88
2023-05-07T06:41:39.764Z,88
2023-05-07T06:42:11.756Z,87
2023-05-07T06:42:43.586Z,88
2023-05-07T06:43:15.704Z,88
2023-05-07T06:43:47.611Z,88
2023-05-07T06:44:19.618Z,88
2023-05-07T06:44:51.599Z,87
2023-05-07T06:45:23.603Z,87
2023-05-07T06:45:55.749Z,88
2023-05-07T06:46:27.541Z,88
2023-05-07T06:46:59.266Z,88
2023-05-07T06:47:31.703Z,88
2023-05-07T06:48:03.677Z,88
2023-05-07T06:48:35.502Z,88
2023-05-07T06:49:07.259Z,87
2023-05-07T06:49:39.390Z,88
2023-05-07T06:50:11.810Z,88
2023-05-07T06:50:43.382Z,88
2023-05-07T06:51:15.176Z,88
2023-05-07T06:51:47.253Z,88
2023-05-07T06:52:19.240Z,88
2023-05-07T06:52:51.491Z,88
2023-05-07T06:53:23.239Z,87
2023-05-07T06:53:55.190Z,87
2023-05-07T06:54:27.155Z,88
2023-05-07T06:54:59.180Z,88
2023-05-07T06:55:31.147Z,87
2023-05-07T06:56:03.228Z,88
2023-05-07T06:56:35.108Z,88
2023-05-07T06:57:07.076Z,88
2023-05-07T06:57:38.947Z,88
2023-05-07T06:58:11.137Z,88
2023-05-07T06:58:43.130Z,87
2023-05-07T06:59:14.850Z,88
2023-05-07T06:59:46.788Z,88
2023-05-07T07:00:19.526Z,88
2023-05-07T07:00:51.056Z,88
2023-05-07T07:01:22.766Z,88
2023-05-07T07:01:54.821Z,88
2023-05-07T07:02:26.745Z,87
2023-05-07T07:02:58.950Z,88
2023-05-07T07:03:31.019Z,87
2023-05-07T07:04:02.681Z,88
2023-05-07T07:04:34.735Z,88
2023-05-07T07:05:06.843Z,88
2023-05-07T07:05:38.909Z,88
2023-05-07T07:06:10.753Z,88
2023-05-07T07:06:42.750Z,88
2023-05-07T07:07:14.631Z,88
2023-05-07T07:07:46.602Z,87
2023-05-07T07:08:18.802Z,87
2023-05-07T07:08:50.604Z,87
2023-05-07T07:09:24.063Z,87
2023-05-07T07:09:54.358Z,87
2023-05-07T07:10:26.541Z,87
2023-05-07T07:10:58.634Z,88
2023-05-07T07:11:30.537Z,88
2023-05-07T07:12:02.302Z,87
2023-05-07T07:12:34.354Z,87
2023-05-07T07:13:06.558Z,87
2023-05-07T07:13:38.461Z,87
2023-05-07T07:14:10.400Z,88
2023-05-07T07:14:42.367Z,87
2023-05-07T07:15:14.398Z,87
2023-05-07T07:15:46.587Z,87
2023-05-07T07:16:18.417Z,87
2023-05-07T07:16:50.180Z,87
2023-05-07T07:17:22.397Z,87
2023-05-07T07:17:54.424Z,87
2023-05-07T07:18:26.172Z,87
2023-05-07T07:18:58.082Z,87
2023-05-07T07:19:30.165Z,87
2023-05-07T07:20:02.259Z,87
2023-05-07T07:20:33.970Z,87
2023-05-07T07:21:06.088Z,87
2023-05-07T07:21:38.049Z,87
2023-05-07T07:22:10.130Z,87
2023-05-07T07:22:42.153Z,87
2023-05-07T07:23:14.031Z,87
2023-05-07T07:23:45.929Z,87
2023-05-07T07:24:17.974Z,87
2023-05-07T07:24:49.765Z,88
2023-05-07T07:25:21.826Z,87
2023-05-07T07:25:53.929Z,87
2023-05-07T07:26:25.970Z,87
2023-05-07T07:26:57.570Z,87
2023-05-07T07:27:29.619Z,87
2023-05-07T07:28:01.766Z,87
2023-05-07T07:28:33.925Z,87
2023-05-07T07:29:05.699Z,87
2023-05-07T07:29:37.619Z,87
2023-05-07T07:30:10.013Z,87
2023-05-07T07:30:41.820Z,87
2023-05-07T07:31:13.659Z,87
2023-05-07T07:31:45.728Z,87
2023-05-07T07:32:17.554Z,87
2023-05-07T07:32:49.827Z,87
2023-05-07T07:33:21.654Z,87
2023-05-07T07:33:53.461Z,87
2023-05-07T07:34:25.490Z,87
2023-05-07T07:34:57.878Z,87
2023-05-07T07:35:29.445Z,87
2023-05-07T07:36:01.600Z,87